GCLP Información de aeropuertos

Información de pistas
Pista 03L Longitud 10171 ft Ancho 148 ft
Elevación 78 ft Umbral 0 ft Rumbo 22
Pista 21R Longitud 10171 ft Ancho 148 ft
Elevación 33 ft Umbral 0 ft Rumbo 202
Pista 03R Longitud 10171 ft Ancho 148 ft
Elevación 69 ft Umbral 0 ft Rumbo 22
Pista 21L Longitud 10171 ft Ancho 148 ft
Elevación 27 ft Umbral 0 ft Rumbo 202
Frecuencias
Tipo APP Nombre APP Frequencia 120.9 MHZ
Tipo ATIS Nombre ATIS Frequencia 118.6 MHZ
Tipo GND Nombre GND Frequencia 121.7 MHZ
Tipo TWR Nombre TWR Frequencia 118.3 MHZ
Radioayudas
Tipo VOR-DME Nombre Gran Canaria Frequencia 112900 KHZ
Tipo VOR-DME Nombre Gran Canaria Frequencia 115000 KHZ
Tipo TACAN Nombre Gran Canaria Frequencia 115600 KHZ
Tipo NDB Nombre Gran Canaria Frequencia 365 KHZ
Información meteorológica y NOTAM
ADDS - METARS form results

(1925 UTC 23 September 2020)
Data provider http://aviationweather.gov/metar/data/
 
METAR text: GCLP 231900Z 03014KT CAVOK 26/17 Q1013 NOSIG
Conditions at: GCLP (LAS PALMAS/GANDO, ES) observed 1900 UTC 23 September 2020
Temperature: 26.0°C (79°F)
Dewpoint: 17.0°C (63°F) [RH = 58%]
Pressure (altimeter): 29.91 inches Hg (1013.0 mb)
Winds: from the NNE (30 degrees) at 16 MPH (14 knots; 7.2 m/s)
Visibility: 6 or more miles (10+ km)
Ceiling: ceiling and visibility are OK
Clouds: unknown
Weather: no significant weather observed at this time

METAR text: GCLP 231830Z 03010KT CAVOK 27/16 Q1014 NOSIG
Conditions at: GCLP (LAS PALMAS/GANDO, ES) observed 1830 UTC 23 September 2020
Temperature: 27.0°C (81°F)
Dewpoint: 16.0°C (61°F) [RH = 51%]
Pressure (altimeter): 29.94 inches Hg (1014.0 mb)
Winds: from the NNE (30 degrees) at 12 MPH (10 knots; 5.1 m/s)
Visibility: 6 or more miles (10+ km)
Ceiling: ceiling and visibility are OK
Clouds: unknown
Weather: no significant weather observed at this time

Forecast for: GCLP (LAS PALMAS/GANDO, ES)
Text: TAF GCLP 231400Z 2315/2415 36020KT CAVOK TX27/2414Z TN22/2406Z
Forecast period: 1500 to 1900 UTC 23 September 2020
Forecast type: FROM: standard forecast or significant change
Winds: from the N (360 degrees) at 23 MPH (20 knots; 10.3 m/s)
Visibility: 6 or more miles (10+ km)
Ceiling: unknown
Clouds: missing
Weather: no significant weather forecast for this period
Text: PROB30
Forecast period: 1700 to 1900 UTC 23 September 2020
Forecast type: TEMPORARY: The following changes expected for less than half the time period
Winds: from the SSW (210 degrees) at 8 MPH (7 knots; 3.6 m/s)
Visibility: missing
Ceiling: unknown
Clouds: missing
Weather: no significant weather forecast for this period
Text: TEMPO 2317/2319 21007KT
Forecast period: 1900 UTC 23 September 2020 to 1500 UTC 24 September 2020
Forecast type: BECOMING: Conditions expected to become as follows by 2100 UTC 23 September 2020
Winds: from the N (360 degrees) at 10 MPH (9 knots; 4.6 m/s)
Visibility: 6 or more miles (10+ km)
Ceiling: unknown
Clouds: missing
Weather: no significant weather forecast for this period